Flight Track Log - Related Links

Times and Time Zones

All times are in EDT time to prevent confusion due to time zone crossing. See the RPA3228 flight status page for this flight to view local times or setup timezone preferences in your user account.

Time Position Orientation Groundspeed Altitude Reporting Facility
EDT Latitude Longitude Course Direction KTS MPH feet Rate Location/Type
Fri 10:01:52 36.1500 -86.6833 64° Northeast 146 168 1,300  Level Nashville TRACON
Fri 10:03:04 36.1667 -86.6167 73° East 225 259 3,700 1,227 Climbing Nashville TRACON
Fri 10:04:00 36.1620 -86.2900 76° East  Level FlightAware Approximate
Fri 10:04:04 36.1500 -86.5333 104° East 275 316 4,000  Level Nashville TRACON
Fri 10:05:00 36.1858 -86.1659 80° East  Level FlightAware Approximate
Fri 10:05:04 36.1333 -86.4500 104° East 266 306 5,100  Level Nashville TRACON
Fri 10:05:32 36.1167 -86.4131 119° Southeast 272 313 6,900 3,205 Climbing Memphis Center
Fri 10:06:00 36.2096 -86.0427 64° Northeast  Level FlightAware Approximate
Fri 10:06:32 36.0928 -86.3192 107° East 310 357 9,800  Level Memphis Center
Fri 10:07:00 36.2553 -85.9284 64° Northeast  Level FlightAware Approximate
Fri 10:07:32 36.1317 -86.2325 61° Northeast 269 310 12,800  Level Memphis Center
Fri 10:09:38 36.2164 -86.0358 62° Northeast 330 380 17,500 2,133 Climbing Indianapolis Center
Fri 10:10:32 36.2611 -85.9375 61° Northeast 350 403 19,200 2,323 Climbing Memphis Center
Fri 10:11:42 36.3225 -85.7956 62° Northeast 370 426 22,300 2,318 Climbing Indianapolis Center
Fri 10:12:44 36.3767 -85.6828 59° Northeast 377 434 24,300 1,742 Climbing Indianapolis Center
Fri 10:13:46 36.4336 -85.5631 59° Northeast 396 456 25,900 1,548 Climbing Indianapolis Center
Fri 10:14:48 36.4931 -85.4406 59° Northeast 408 470 27,500 1,452 Climbing Indianapolis Center
Fri 10:15:50 36.5728 -85.3381 46° Northeast 414 476 28,900 871 Climbing Indianapolis Center
Fri 10:16:52 36.6544 -85.2403 44° Northeast 407 468 29,300 387 Climbing Indianapolis Center
Fri 10:17:54 36.7597 -85.1158 43° Northeast 431 496 29,700 435 Climbing Indianapolis Center
Fri 10:18:56 36.8447 -85.0008 47° Northeast 455 524 30,200 629 Climbing Indianapolis Center
Fri 10:19:58 36.8911 -84.8411 70° East 486 559 31,000 968 Climbing Indianapolis Center
Fri 10:21:00 36.9325 -84.6758 73° East 494 568 32,200 968 Climbing Indianapolis Center
Fri 10:22:02 36.9739 -84.5136 72° East 491 565 33,000 726 Climbing Indianapolis Center
Fri 10:23:04 37.0164 -84.3519 72° East 492 566 33,700 919 Climbing Indianapolis Center
Fri 10:24:06 37.0756 -84.1669 68° East 489 563 34,900 629 Climbing Indianapolis Center
Fri 10:25:08 37.1364 -84.0175 63° Northeast 482 555 35,000 48 Climbing Indianapolis Center
Fri 10:26:10 37.1986 -83.8658 63° Northeast 486 559 35,000  Level Indianapolis Center
Fri 10:27:12 37.2642 -83.7111 62° Northeast 499 574 35,000  Level Indianapolis Center
Fri 10:28:14 37.3275 -83.5611 62° Northeast 489 563 35,000  Level Indianapolis Center
Fri 10:29:16 37.3775 -83.3964 69° East 498 573 35,000  Level Indianapolis Center
Fri 10:30:18 37.4211 -83.2283 72° East 502 578 35,000  Level Indianapolis Center
Fri 10:31:20 37.4736 -83.0297 72° East 507 583 35,000  Level Indianapolis Center
Fri 10:32:22 37.5178 -82.8597 72° East 510 587 35,000  Level Indianapolis Center
Fri 10:33:25 37.5594 -82.6947 72° East 495 570 35,000  Level Indianapolis Center
Fri 10:34:27 37.6019 -82.5328 72° East 486 559 35,000  Level Indianapolis Center
Fri 10:35:29 37.6422 -82.3686 73° East 486 559 35,000  Level Indianapolis Center
Fri 10:36:31 37.6831 -82.2053 72° East 486 559 35,000  Level Indianapolis Center
Fri 10:37:33 37.7308 -82.0181 72° East 481 554 35,000  Level Indianapolis Center
Fri 10:38:35 37.7719 -81.8531 72° East 489 563 35,000  Level Indianapolis Center
Fri 10:39:37 37.8147 -81.6831 72° East 502 578 35,000  Level Indianapolis Center
Fri 10:40:39 37.8561 -81.5119 73° East 507 583 35,000  Level Indianapolis Center
Fri 10:41:41 37.8956 -81.3442 73° East 500 575 35,000  Level Indianapolis Center
Fri 10:42:43 37.9361 -81.1761 73° East 501 577 35,000  Level Indianapolis Center
Fri 10:43:45 37.9772 -81.0072 73° East 503 579 35,000  Level Indianapolis Center
Fri 10:44:47 38.0239 -80.8058 74° East 500 575 35,000  Level Indianapolis Center
Fri 10:45:49 38.0622 -80.6397 74° East 495 570 35,000  Level Indianapolis Center
Fri 10:46:26 38.0881 -80.5361 72° East 490 564 35,000 -122 Level Washington Center
Fri 10:47:27 38.1283 -80.3672 73° East 490 564 34,800 -496 Descending Washington Center
Fri 10:48:27 38.1683 -80.1953 73° East 495 570 34,000 -397 Descending Washington Center
Fri 10:49:28 38.2081 -80.0261 73° East 495 570 34,000  Level Washington Center
Fri 10:50:26 38.2431 -79.8694 74° East 501 577 34,000 -50 Level Washington Center
Fri 10:51:27 38.2886 -79.6975 71° East 501 577 33,900 -1,230 Descending Washington Center
Fri 10:52:28 38.3442 -79.5336 67° East 501 577 31,500 -2,529 Descending Washington Center
Fri 10:53:28 38.3994 -79.3722 66° East 501 577 28,800 -1,780 Descending Washington Center
Fri 10:54:26 38.4419 -79.2128 71° East 488 562 28,000 -403 Descending Washington Center
Fri 10:55:27 38.4722 -79.0286 78° East 474 545 28,000 -639 Level Washington Center
Fri 10:56:28 38.4947 -78.8969 78° East 469 540 26,700 -1,785 Descending Washington Center
Fri 10:57:28 38.5222 -78.7283 78° East 456 525 24,400 -2,136 Descending Washington Center
Fri 10:58:26 38.5447 -78.5806 79° East 441 507 22,500 -1,815 Descending Washington Center
Fri 10:59:27 38.5672 -78.4303 79° East 428 493 20,800 -1,869 Descending Washington Center
Fri 11:00:28 38.5914 -78.2878 78° East 417 480 18,700 -1,934 Descending Washington Center
Fri 11:01:28 38.6253 -78.1586 71° East 401 461 16,900 -1,678 Descending Washington Center
Fri 11:02:26 38.6678 -78.0325 67° East 386 444 15,400 -1,475 Descending Washington Center
Fri 11:03:26 38.7078 -77.9061 68° East 381 438 14,000 -1,388 Descending Washington Center
Fri 11:04:27 38.7514 -77.7983 63° Northeast 365 420 12,600 -1,475 Descending Washington Center
Fri 11:05:28 38.8178 -77.7019 49° Northeast 337 388 11,000 -1,440 Descending Washington Center
Fri 11:06:32 38.8667 -77.5833 62° Northeast 312 359 9,600 -1,258 Descending Potomac TRACON
Fri 11:07:32 38.9000 -77.4833 67° East 299 344 8,400 -1,200 Descending Potomac TRACON
Fri 11:08:27 38.8833 -77.4000 104° East 305 351 7,300 -1,266 Descending Potomac TRACON
Fri 11:09:21 38.8500 -77.3167 117° Southeast 297 342 6,100 -678 Descending Potomac TRACON
Fri 11:10:22 38.8167 -77.2333 117° Southeast 292 336 6,000 -50 Descending Potomac TRACON
Fri 11:11:22 38.7833 -77.1500 117° Southeast 258 297 6,000 -250 Level Potomac TRACON
Fri 11:12:22 38.7167 -77.1167 159° South 214 246 5,500 -1,000 Descending Potomac TRACON
Fri 11:13:22 38.6667 -77.1000 165° South 227 261 4,000 -947 Descending Potomac TRACON
Fri 11:14:16 38.6167 -77.0833 165° South 232 267 3,700 -522 Descending Potomac TRACON
Fri 11:15:17 38.6333 -77.0333 67° East 175 201 3,000 -347 Descending Potomac TRACON
Fri 11:16:17 38.6833 -77.0167 15° North 159 183 3,000 -350 Level Potomac TRACON
Fri 11:17:17 38.7333 -77.0167 360° North 168 193 2,300 -700 Descending Potomac TRACON

Login

Don't have an account? Register now (free) for customized features, flight alerts, and more!